sensor_id;sensor_type;location;lat;lon;timestamp;pressure;altitude;pressure_sealevel;temperature;humidity
69796;BME280;57073;45.650;9.612;2023-09-30T00:01:47;99844.25;;;18.75;55.21
69796;BME280;57073;45.650;9.612;2023-09-30T00:06:48;99839.06;;;18.79;54.93
69796;BME280;57073;45.650;9.612;2023-09-30T00:11:48;99846.16;;;18.80;54.33
69796;BME280;57073;45.650;9.612;2023-09-30T00:16:48;99853.84;;;18.78;53.96
69796;BME280;57073;45.650;9.612;2023-09-30T00:21:49;99857.97;;;18.65;54.61
69796;BME280;57073;45.650;9.612;2023-09-30T00:26:49;99852.75;;;18.74;54.25
69796;BME280;57073;45.650;9.612;2023-09-30T00:31:50;99850.31;;;18.72;53.90
69796;BME280;57073;45.650;9.612;2023-09-30T00:36:51;99841.31;;;18.67;53.87
69796;BME280;57073;45.650;9.612;2023-09-30T00:41:51;99840.19;;;18.62;54.13
69796;BME280;57073;45.650;9.612;2023-09-30T00:46:54;99840.75;;;18.64;54.26
69796;BME280;57073;45.650;9.612;2023-09-30T00:51:55;99835.59;;;18.58;54.76
69796;BME280;57073;45.650;9.612;2023-09-30T00:56:57;99845.44;;;18.54;54.86
69796;BME280;57073;45.650;9.612;2023-09-30T01:01:59;99835.03;;;18.61;54.75
69796;BME280;57073;45.650;9.612;2023-09-30T01:07:00;99832.00;;;18.62;54.80
69796;BME280;57073;45.650;9.612;2023-09-30T01:12:00;99826.59;;;18.52;54.92
69796;BME280;57073;45.650;9.612;2023-09-30T01:17:02;99826.59;;;18.57;54.75
69796;BME280;57073;45.650;9.612;2023-09-30T01:22:03;99828.19;;;18.58;54.48
69796;BME280;57073;45.650;9.612;2023-09-30T01:27:04;99825.22;;;18.39;55.29
69796;BME280;57073;45.650;9.612;2023-09-30T01:32:05;99816.75;;;18.46;55.36
69796;BME280;57073;45.650;9.612;2023-09-30T01:37:09;99815.38;;;18.43;55.24
69796;BME280;57073;45.650;9.612;2023-09-30T01:42:10;99812.66;;;18.28;55.84
69796;BME280;57073;45.650;9.612;2023-09-30T01:47:10;99816.50;;;18.27;55.85
69796;BME280;57073;45.650;9.612;2023-09-30T01:52:11;99806.94;;;18.35;55.80
69796;BME280;57073;45.650;9.612;2023-09-30T01:57:12;99804.78;;;18.27;55.62
69796;BME280;57073;45.650;9.612;2023-09-30T02:02:12;99811.84;;;18.33;55.51
69796;BME280;57073;45.650;9.612;2023-09-30T02:07:12;99810.78;;;18.18;56.25
69796;BME280;57073;45.650;9.612;2023-09-30T02:12:13;99808.31;;;18.12;56.68
69796;BME280;57073;45.650;9.612;2023-09-30T02:17:13;99802.59;;;18.23;55.93
69796;BME280;57073;45.650;9.612;2023-09-30T02:22:14;99797.13;;;18.18;55.50
69796;BME280;57073;45.650;9.612;2023-09-30T02:27:15;99802.03;;;18.21;55.71
69796;BME280;57073;45.650;9.612;2023-09-30T02:32:16;99805.84;;;18.15;55.90
69796;BME280;57073;45.650;9.612;2023-09-30T02:37:17;99781.88;;;18.07;56.24
69796;BME280;57073;45.650;9.612;2023-09-30T02:42:18;99783.47;;;18.08;56.34
69796;BME280;57073;45.650;9.612;2023-09-30T02:47:18;99772.56;;;18.08;55.67
69796;BME280;57073;45.650;9.612;2023-09-30T02:52:19;99779.69;;;18.04;56.14
69796;BME280;57073;45.650;9.612;2023-09-30T02:57:19;99781.06;;;18.01;55.47
69796;BME280;57073;45.650;9.612;2023-09-30T03:02:20;99787.31;;;17.97;56.79
69796;BME280;57073;45.650;9.612;2023-09-30T03:07:23;99798.25;;;17.97;56.72
69796;BME280;57073;45.650;9.612;2023-09-30T03:12:24;99789.78;;;17.83;57.30
69796;BME280;57073;45.650;9.612;2023-09-30T03:17:26;99777.78;;;17.84;56.42
69796;BME280;57073;45.650;9.612;2023-09-30T03:22:26;99778.59;;;17.95;56.42
69796;BME280;57073;45.650;9.612;2023-09-30T03:27:27;99784.59;;;17.97;56.60
69796;BME280;57073;45.650;9.612;2023-09-30T03:32:27;99780.25;;;17.91;56.39
69796;BME280;57073;45.650;9.612;2023-09-30T03:37:31;99780.50;;;17.94;56.35
69796;BME280;57073;45.650;9.612;2023-09-30T03:42:31;99776.13;;;17.88;56.56
69796;BME280;57073;45.650;9.612;2023-09-30T03:47:32;99778.59;;;17.90;56.19
69796;BME280;57073;45.650;9.612;2023-09-30T03:52:34;99766.06;;;17.89;56.19
69796;BME280;57073;45.650;9.612;2023-09-30T03:57:34;99769.59;;;17.79;56.44
69796;BME280;57073;45.650;9.612;2023-09-30T04:02:35;99755.41;;;17.82;56.57
69796;BME280;57073;45.650;9.612;2023-09-30T04:07:35;99764.69;;;17.81;56.02
69796;BME280;57073;45.650;9.612;2023-09-30T04:12:36;99775.31;;;17.82;56.27
69796;BME280;57073;45.650;9.612;2023-09-30T04:17:37;99780.78;;;17.77;56.08
69796;BME280;57073;45.650;9.612;2023-09-30T04:22:38;99781.34;;;17.74;56.50
69796;BME280;57073;45.650;9.612;2023-09-30T04:27:39;99786.25;;;17.67;56.25
69796;BME280;57073;45.650;9.612;2023-09-30T04:32:39;99780.22;;;17.60;56.36
69796;BME280;57073;45.650;9.612;2023-09-30T04:37:39;99783.75;;;17.55;57.26
69796;BME280;57073;45.650;9.612;2023-09-30T04:42:40;99782.09;;;17.49;57.63
69796;BME280;57073;45.650;9.612;2023-09-30T04:47:41;99783.22;;;17.58;56.57
69796;BME280;57073;45.650;9.612;2023-09-30T04:52:42;99775.00;;;17.53;57.00
69796;BME280;57073;45.650;9.612;2023-09-30T04:57:46;99775.00;;;17.43;57.31
69796;BME280;57073;45.650;9.612;2023-09-30T05:02:47;99788.09;;;17.51;57.56
69796;BME280;57073;45.650;9.612;2023-09-30T05:12:48;99806.91;;;17.47;57.11
69796;BME280;57073;45.650;9.612;2023-09-30T05:17:49;99802.81;;;17.50;57.41
69796;BME280;57073;45.650;9.612;2023-09-30T05:22:49;99817.28;;;17.51;57.25
69796;BME280;57073;45.650;9.612;2023-09-30T05:32:51;99820.28;;;17.54;56.93
69796;BME280;57073;45.650;9.612;2023-09-30T05:37:52;99810.16;;;17.44;56.83
69796;BME280;57073;45.650;9.612;2023-09-30T05:42:54;99814.81;;;17.44;56.97
69796;BME280;57073;45.650;9.612;2023-09-30T05:47:55;99815.66;;;17.55;56.99
69796;BME280;57073;45.650;9.612;2023-09-30T05:52:57;99811.88;;;17.71;56.97
69796;BME280;57073;45.650;9.612;2023-09-30T05:57:58;99809.69;;;17.99;56.02
69796;BME280;57073;45.650;9.612;2023-09-30T06:03:01;99808.34;;;17.96;55.64
69796;BME280;57073;45.650;9.612;2023-09-30T06:08:03;99781.59;;;18.09;55.99
69796;BME280;57073;45.650;9.612;2023-09-30T06:13:04;99784.28;;;18.24;55.81
69796;BME280;57073;45.650;9.612;2023-09-30T06:18:06;99803.91;;;18.52;55.27
69796;BME280;57073;45.650;9.612;2023-09-30T06:23:06;99810.72;;;18.59;54.95
69796;BME280;57073;45.650;9.612;2023-09-30T06:28:07;99819.41;;;18.77;54.38
69796;BME280;57073;45.650;9.612;2023-09-30T06:33:08;99830.16;;;19.18;53.62
69796;BME280;57073;45.650;9.612;2023-09-30T06:38:11;99814.50;;;19.39;53.60
69796;BME280;57073;45.650;9.612;2023-09-30T06:43:12;99815.16;;;19.65;52.88
69796;BME280;57073;45.650;9.612;2023-09-30T06:48:12;99830.88;;;19.84;52.24
69796;BME280;57073;45.650;9.612;2023-09-30T06:53:13;99842.97;;;20.17;51.96
69796;BME280;57073;45.650;9.612;2023-09-30T06:58:13;99848.16;;;20.48;51.54
69796;BME280;57073;45.650;9.612;2023-09-30T07:03:15;99843.34;;;20.88;50.57
69796;BME280;57073;45.650;9.612;2023-09-30T07:08:19;99844.16;;;20.88;49.88
69796;BME280;57073;45.650;9.612;2023-09-30T07:13:21;99856.69;;;21.38;49.41
69796;BME280;57073;45.650;9.612;2023-09-30T07:18:21;99858.66;;;21.75;48.85
69796;BME280;57073;45.650;9.612;2023-09-30T07:23:22;99852.19;;;21.85;47.82
69796;BME280;57073;45.650;9.612;2023-09-30T07:28:22;99858.09;;;22.11;47.39
69796;BME280;57073;45.650;9.612;2023-09-30T07:33:22;99868.31;;;22.24;45.55
69796;BME280;57073;45.650;9.612;2023-09-30T07:38:23;99871.84;;;22.58;46.35
69796;BME280;57073;45.650;9.612;2023-09-30T07:43:23;99874.81;;;22.48;45.95
69796;BME280;57073;45.650;9.612;2023-09-30T07:48:23;99867.19;;;22.72;45.96
69796;BME280;57073;45.650;9.612;2023-09-30T07:53:25;99858.44;;;22.84;44.13
69796;BME280;57073;45.650;9.612;2023-09-30T07:58:25;99862.34;;;22.97;45.63
69796;BME280;57073;45.650;9.612;2023-09-30T08:03:26;99880.13;;;22.86;44.03
69796;BME280;57073;45.650;9.612;2023-09-30T08:08:26;99879.09;;;23.51;44.30
69796;BME280;57073;45.650;9.612;2023-09-30T08:13:27;99879.81;;;23.43;43.45
69796;BME280;57073;45.650;9.612;2023-09-30T08:18:29;99876.69;;;23.72;42.95
69796;BME280;57073;45.650;9.612;2023-09-30T08:23:30;99875.06;;;24.07;42.72
69796;BME280;57073;45.650;9.612;2023-09-30T08:28:30;99892.06;;;24.09;41.81
69796;BME280;57073;45.650;9.612;2023-09-30T08:33:32;99891.84;;;24.20;41.91
69796;BME280;57073;45.650;9.612;2023-09-30T08:38:39;99897.97;;;24.39;41.70
69796;BME280;57073;45.650;9.612;2023-09-30T08:43:40;99895.25;;;24.48;42.40
69796;BME280;57073;45.650;9.612;2023-09-30T08:48:41;99897.19;;;24.79;42.37
69796;BME280;57073;45.650;9.612;2023-09-30T08:53:42;99907.13;;;24.80;41.21
69796;BME280;57073;45.650;9.612;2023-09-30T08:58:45;99905.44;;;25.01;41.71
69796;BME280;57073;45.650;9.612;2023-09-30T09:03:45;99900.09;;;25.14;41.48
69796;BME280;57073;45.650;9.612;2023-09-30T09:08:53;99901.44;;;25.16;40.55
69796;BME280;57073;45.650;9.612;2023-09-30T09:13:53;99891.69;;;25.19;40.86
69796;BME280;57073;45.650;9.612;2023-09-30T09:18:57;99892.50;;;25.10;40.24
69796;BME280;57073;45.650;9.612;2023-09-30T09:23:57;99894.94;;;25.21;41.10
69796;BME280;57073;45.650;9.612;2023-09-30T09:28:59;99892.03;;;25.26;41.26
69796;BME280;57073;45.650;9.612;2023-09-30T09:34:02;99904.72;;;25.27;41.21
69796;BME280;57073;45.650;9.612;2023-09-30T09:39:03;99909.09;;;25.19;41.76
69796;BME280;57073;45.650;9.612;2023-09-30T09:44:04;99905.84;;;25.26;41.28
69796;BME280;57073;45.650;9.612;2023-09-30T09:49:05;99914.25;;;25.21;41.58
69796;BME280;57073;45.650;9.612;2023-09-30T09:54:06;99916.19;;;25.11;41.44
69796;BME280;57073;45.650;9.612;2023-09-30T09:59:08;99906.31;;;25.19;41.44
69796;BME280;57073;45.650;9.612;2023-09-30T10:04:11;99901.25;;;25.13;41.18
69796;BME280;57073;45.650;9.612;2023-09-30T10:09:12;99891.00;;;24.96;40.53
69796;BME280;57073;45.650;9.612;2023-09-30T10:14:33;99876.94;;;24.83;40.86
69796;BME280;57073;45.650;9.612;2023-09-30T10:19:34;99869.09;;;24.68;41.24
69796;BME280;57073;45.650;9.612;2023-09-30T10:24:34;99862.31;;;24.74;41.53
69796;BME280;57073;45.650;9.612;2023-09-30T10:29:41;99850.47;;;24.42;41.15
69796;BME280;57073;45.650;9.612;2023-09-30T10:34:49;99860.97;;;24.31;40.53
69796;BME280;57073;45.650;9.612;2023-09-30T10:39:56;99859.91;;;24.50;41.53
69796;BME280;57073;45.650;9.612;2023-09-30T10:44:56;99855.25;;;24.59;42.22
69796;BME280;57073;45.650;9.612;2023-09-30T10:49:57;99846.84;;;24.64;42.55
69796;BME280;57073;45.650;9.612;2023-09-30T10:55:07;99846.03;;;24.64;41.47
69796;BME280;57073;45.650;9.612;2023-09-30T11:05:09;99831.13;;;24.65;42.38
69796;BME280;57073;45.650;9.612;2023-09-30T11:10:10;99828.34;;;24.56;41.50
69796;BME280;57073;45.650;9.612;2023-09-30T11:15:13;99830.44;;;24.59;41.79
69796;BME280;57073;45.650;9.612;2023-09-30T11:20:16;99840.22;;;24.65;41.80
69796;BME280;57073;45.650;9.612;2023-09-30T11:25:18;99827.44;;;24.78;41.86
69796;BME280;57073;45.650;9.612;2023-09-30T11:30:19;99829.88;;;24.80;41.72
69796;BME280;57073;45.650;9.612;2023-09-30T11:35:23;99825.81;;;24.77;42.13
69796;BME280;57073;45.650;9.612;2023-09-30T11:40:24;99831.50;;;24.81;42.08
69796;BME280;57073;45.650;9.612;2023-09-30T11:45:24;99833.19;;;24.90;42.09
69796;BME280;57073;45.650;9.612;2023-09-30T11:50:25;99828.13;;;24.84;40.95
69796;BME280;57073;45.650;9.612;2023-09-30T11:55:25;99826.47;;;24.83;41.32
69796;BME280;57073;45.650;9.612;2023-09-30T12:00:27;99822.34;;;24.94;41.14
69796;BME280;57073;45.650;9.612;2023-09-30T12:05:29;99823.47;;;24.93;41.18
69796;BME280;57073;45.650;9.612;2023-09-30T12:10:30;99822.28;;;24.85;40.64
69796;BME280;57073;45.650;9.612;2023-09-30T12:15:31;99823.16;;;24.95;40.83
69796;BME280;57073;45.650;9.612;2023-09-30T12:20:32;99811.31;;;24.94;41.23
69796;BME280;57073;45.650;9.612;2023-09-30T12:25:33;99802.84;;;24.90;40.78
69796;BME280;57073;45.650;9.612;2023-09-30T12:30:33;99796.50;;;24.90;40.82
69796;BME280;57073;45.650;9.612;2023-09-30T12:35:34;99785.75;;;24.71;40.06
69796;BME280;57073;45.650;9.612;2023-09-30T12:40:35;99794.84;;;24.80;40.41
69796;BME280;57073;45.650;9.612;2023-09-30T12:45:36;99780.72;;;24.73;40.05
69796;BME280;57073;45.650;9.612;2023-09-30T12:50:38;99777.97;;;24.82;40.71
69796;BME280;57073;45.650;9.612;2023-09-30T12:55:39;99777.00;;;24.86;40.56
69796;BME280;57073;45.650;9.612;2023-09-30T13:00:39;99774.44;;;24.90;41.03
69796;BME280;57073;45.650;9.612;2023-09-30T13:05:40;99775.44;;;24.94;40.50
69796;BME280;57073;45.650;9.612;2023-09-30T13:10:40;99769.63;;;24.96;40.44
69796;BME280;57073;45.650;9.612;2023-09-30T13:15:41;99775.94;;;24.96;40.63
69796;BME280;57073;45.650;9.612;2023-09-30T13:20:41;99769.88;;;24.85;40.69
69796;BME280;57073;45.650;9.612;2023-09-30T13:25:41;99771.47;;;24.86;40.20
69796;BME280;57073;45.650;9.612;2023-09-30T13:30:42;99761.91;;;24.84;40.47
69796;BME280;57073;45.650;9.612;2023-09-30T13:35:45;99759.22;;;24.92;40.02
69796;BME280;57073;45.650;9.612;2023-09-30T13:40:45;99751.75;;;24.93;40.15
69796;BME280;57073;45.650;9.612;2023-09-30T13:45:46;99739.09;;;24.92;40.59
69796;BME280;57073;45.650;9.612;2023-09-30T13:50:46;99739.59;;;24.94;40.28
69796;BME280;57073;45.650;9.612;2023-09-30T13:55:47;99744.09;;;24.90;40.63
69796;BME280;57073;45.650;9.612;2023-09-30T14:00:47;99733.69;;;24.78;40.88
69796;BME280;57073;45.650;9.612;2023-09-30T14:05:52;99726.72;;;24.89;40.92
69796;BME280;57073;45.650;9.612;2023-09-30T14:10:53;99720.56;;;24.84;40.71
69796;BME280;57073;45.650;9.612;2023-09-30T14:15:53;99716.38;;;24.95;40.30
69796;BME280;57073;45.650;9.612;2023-09-30T14:20:54;99716.22;;;25.00;40.55
69796;BME280;57073;45.650;9.612;2023-09-30T14:25:54;99712.16;;;24.98;39.91
69796;BME280;57073;45.650;9.612;2023-09-30T14:31:03;99702.56;;;24.95;40.02
69796;BME280;57073;45.650;9.612;2023-09-30T14:36:03;99723.03;;;25.11;40.55
69796;BME280;57073;45.650;9.612;2023-09-30T14:41:07;99715.44;;;25.08;40.00
69796;BME280;57073;45.650;9.612;2023-09-30T14:46:08;99724.03;;;25.16;40.26
69796;BME280;57073;45.650;9.612;2023-09-30T14:51:09;99717.03;;;25.01;40.16
69796;BME280;57073;45.650;9.612;2023-09-30T14:56:17;99715.06;;;25.19;39.71
69796;BME280;57073;45.650;9.612;2023-09-30T15:01:18;99706.63;;;25.24;40.39
69796;BME280;57073;45.650;9.612;2023-09-30T15:06:20;99698.19;;;25.29;40.35
69796;BME280;57073;45.650;9.612;2023-09-30T15:11:23;99686.03;;;25.21;39.60
69796;BME280;57073;45.650;9.612;2023-09-30T15:16:23;99693.66;;;25.07;39.81
69796;BME280;57073;45.650;9.612;2023-09-30T15:21:25;99696.75;;;25.23;40.03
69796;BME280;57073;45.650;9.612;2023-09-30T15:26:25;99695.28;;;25.17;39.56
69796;BME280;57073;45.650;9.612;2023-09-30T15:31:28;99690.09;;;25.15;39.36
69796;BME280;57073;45.650;9.612;2023-09-30T15:36:29;99689.13;;;25.11;39.53
69796;BME280;57073;45.650;9.612;2023-09-30T15:41:30;99692.84;;;25.06;39.53
69796;BME280;57073;45.650;9.612;2023-09-30T15:46:30;99695.28;;;24.99;39.17
69796;BME280;57073;45.650;9.612;2023-09-30T15:51:31;99695.63;;;24.98;39.46
69796;BME280;57073;45.650;9.612;2023-09-30T15:56:31;99696.25;;;25.03;39.27
69796;BME280;57073;45.650;9.612;2023-09-30T16:01:33;99702.09;;;25.02;39.42
69796;BME280;57073;45.650;9.612;2023-09-30T16:06:33;99696.09;;;24.91;39.18
69796;BME280;57073;45.650;9.612;2023-09-30T16:11:33;99702.41;;;24.91;39.69
69796;BME280;57073;45.650;9.612;2023-09-30T16:16:34;99698.53;;;24.92;40.23
69796;BME280;57073;45.650;9.612;2023-09-30T16:21:34;99699.13;;;24.89;39.74
69796;BME280;57073;45.650;9.612;2023-09-30T16:26:34;99703.44;;;24.56;39.61
69796;BME280;57073;45.650;9.612;2023-09-30T16:31:35;99703.97;;;24.58;39.81
69796;BME280;57073;45.650;9.612;2023-09-30T16:36:36;99695.19;;;24.47;40.62
69796;BME280;57073;45.650;9.612;2023-09-30T16:41:37;99696.66;;;24.53;39.94
69796;BME280;57073;45.650;9.612;2023-09-30T16:46:38;99696.47;;;24.49;40.07
69796;BME280;57073;45.650;9.612;2023-09-30T16:51:38;99696.03;;;24.25;40.56
69796;BME280;57073;45.650;9.612;2023-09-30T16:56:39;99710.47;;;24.22;40.57
69796;BME280;57073;45.650;9.612;2023-09-30T17:01:39;99716.97;;;24.26;40.85
69796;BME280;57073;45.650;9.612;2023-09-30T17:06:40;99719.19;;;24.15;41.38
69796;BME280;57073;45.650;9.612;2023-09-30T17:11:41;99723.72;;;24.11;41.61
69796;BME280;57073;45.650;9.612;2023-09-30T17:16:41;99734.06;;;24.05;42.40
69796;BME280;57073;45.650;9.612;2023-09-30T17:21:42;99733.88;;;24.02;42.46
69796;BME280;57073;45.650;9.612;2023-09-30T17:26:43;99737.09;;;23.95;41.85
69796;BME280;57073;45.650;9.612;2023-09-30T17:31:43;99741.72;;;23.86;42.14
69796;BME280;57073;45.650;9.612;2023-09-30T17:36:44;99743.00;;;23.80;42.01
69796;BME280;57073;45.650;9.612;2023-09-30T17:41:44;99751.19;;;23.71;42.01
69796;BME280;57073;45.650;9.612;2023-09-30T17:46:45;99761.53;;;23.65;42.09
69796;BME280;57073;45.650;9.612;2023-09-30T17:51:45;99761.84;;;23.64;42.91
69796;BME280;57073;45.650;9.612;2023-09-30T17:56:49;99767.06;;;23.51;42.43
69796;BME280;57073;45.650;9.612;2023-09-30T18:01:49;99768.31;;;23.45;43.44
69796;BME280;57073;45.650;9.612;2023-09-30T18:06:49;99781.81;;;23.33;43.12
69796;BME280;57073;45.650;9.612;2023-09-30T18:11:50;99790.78;;;23.25;43.50
69796;BME280;57073;45.650;9.612;2023-09-30T18:16:51;99795.59;;;23.19;44.25
69796;BME280;57073;45.650;9.612;2023-09-30T18:21:52;99802.63;;;23.11;45.40
69796;BME280;57073;45.650;9.612;2023-09-30T18:26:52;99799.19;;;23.06;45.48
69796;BME280;57073;45.650;9.612;2023-09-30T18:31:53;99803.25;;;23.08;45.00
69796;BME280;57073;45.650;9.612;2023-09-30T18:36:53;99813.25;;;23.04;45.68
69796;BME280;57073;45.650;9.612;2023-09-30T18:41:54;99819.16;;;22.97;46.96
69796;BME280;57073;45.650;9.612;2023-09-30T18:46:54;99815.66;;;22.92;46.74
69796;BME280;57073;45.650;9.612;2023-09-30T18:51:55;99818.00;;;22.85;47.15
69796;BME280;57073;45.650;9.612;2023-09-30T18:56:55;99827.78;;;22.63;48.59
69796;BME280;57073;45.650;9.612;2023-09-30T19:01:56;99830.22;;;22.64;48.58
69796;BME280;57073;45.650;9.612;2023-09-30T19:06:56;99825.34;;;22.61;48.63
69796;BME280;57073;45.650;9.612;2023-09-30T19:11:57;99831.97;;;22.60;48.43
69796;BME280;57073;45.650;9.612;2023-09-30T19:16:58;99837.47;;;22.60;47.89
69796;BME280;57073;45.650;9.612;2023-09-30T19:21:59;99840.09;;;22.52;49.39
69796;BME280;57073;45.650;9.612;2023-09-30T19:26:59;99834.09;;;22.50;48.51
69796;BME280;57073;45.650;9.612;2023-09-30T19:31:59;99838.38;;;22.42;48.15
69796;BME280;57073;45.650;9.612;2023-09-30T19:37:00;99845.34;;;22.34;49.17
69796;BME280;57073;45.650;9.612;2023-09-30T19:42:01;99849.66;;;22.21;48.95
69796;BME280;57073;45.650;9.612;2023-09-30T19:47:01;99849.13;;;22.05;49.40
69796;BME280;57073;45.650;9.612;2023-09-30T19:52:03;99860.00;;;22.11;49.70
69796;BME280;57073;45.650;9.612;2023-09-30T19:57:05;99858.25;;;22.01;49.94
69796;BME280;57073;45.650;9.612;2023-09-30T20:02:08;99863.38;;;21.88;50.65
69796;BME280;57073;45.650;9.612;2023-09-30T20:07:09;99860.22;;;21.81;50.33
69796;BME280;57073;45.650;9.612;2023-09-30T20:12:12;99863.88;;;21.77;50.54
69796;BME280;57073;45.650;9.612;2023-09-30T20:17:12;99867.78;;;21.71;51.22
69796;BME280;57073;45.650;9.612;2023-09-30T20:22:13;99865.66;;;21.67;50.19
69796;BME280;57073;45.650;9.612;2023-09-30T20:27:13;99867.63;;;21.62;51.03
69796;BME280;57073;45.650;9.612;2023-09-30T20:32:14;99870.78;;;21.50;51.26
69796;BME280;57073;45.650;9.612;2023-09-30T20:37:14;99874.41;;;21.45;51.09
69796;BME280;57073;45.650;9.612;2023-09-30T20:42:14;99872.56;;;21.41;52.01
69796;BME280;57073;45.650;9.612;2023-09-30T20:47:16;99871.72;;;21.21;52.21
69796;BME280;57073;45.650;9.612;2023-09-30T20:52:17;99877.72;;;21.23;51.46
69796;BME280;57073;45.650;9.612;2023-09-30T20:57:17;99869.66;;;21.13;52.72
69796;BME280;57073;45.650;9.612;2023-09-30T21:02:18;99867.78;;;21.08;52.65
69796;BME280;57073;45.650;9.612;2023-09-30T21:07:18;99874.78;;;20.96;52.87
69796;BME280;57073;45.650;9.612;2023-09-30T21:12:19;99872.63;;;20.92;52.08
69796;BME280;57073;45.650;9.612;2023-09-30T21:17:19;99880.31;;;20.90;52.83
69796;BME280;57073;45.650;9.612;2023-09-30T21:22:19;99888.06;;;20.83;52.76
69796;BME280;57073;45.650;9.612;2023-09-30T21:27:20;99897.44;;;20.77;52.85
69796;BME280;57073;45.650;9.612;2023-09-30T21:32:21;99903.50;;;20.74;52.93
69796;BME280;57073;45.650;9.612;2023-09-30T21:37:22;99909.00;;;20.69;53.25
69796;BME280;57073;45.650;9.612;2023-09-30T21:42:22;99913.25;;;20.56;53.39
69796;BME280;57073;45.650;9.612;2023-09-30T21:47:23;99906.41;;;20.59;53.09
69796;BME280;57073;45.650;9.612;2023-09-30T21:52:23;99902.53;;;20.60;53.06
69796;BME280;57073;45.650;9.612;2023-09-30T21:57:24;99904.78;;;20.52;53.14
69796;BME280;57073;45.650;9.612;2023-09-30T22:02:24;99909.19;;;20.53;52.57
69796;BME280;57073;45.650;9.612;2023-09-30T22:07:27;99906.53;;;20.43;53.06
69796;BME280;57073;45.650;9.612;2023-09-30T22:12:31;99909.25;;;20.43;53.33
69796;BME280;57073;45.650;9.612;2023-09-30T22:17:32;99915.41;;;20.30;53.44
69796;BME280;57073;45.650;9.612;2023-09-30T22:22:32;99912.44;;;20.26;53.72
69796;BME280;57073;45.650;9.612;2023-09-30T22:27:34;99910.91;;;20.10;54.66
69796;BME280;57073;45.650;9.612;2023-09-30T22:32:34;99912.88;;;20.04;55.06
69796;BME280;57073;45.650;9.612;2023-09-30T22:37:35;99918.22;;;20.20;53.84
69796;BME280;57073;45.650;9.612;2023-09-30T22:42:36;99922.88;;;20.19;53.14
69796;BME280;57073;45.650;9.612;2023-09-30T22:47:47;99923.72;;;20.14;53.67
69796;BME280;57073;45.650;9.612;2023-09-30T22:52:49;99926.56;;;19.99;54.03
69796;BME280;57073;45.650;9.612;2023-09-30T22:57:51;99926.25;;;20.06;53.62
69796;BME280;57073;45.650;9.612;2023-09-30T23:02:54;99926.84;;;19.97;53.89
69796;BME280;57073;45.650;9.612;2023-09-30T23:07:54;99924.91;;;19.98;54.13
69796;BME280;57073;45.650;9.612;2023-09-30T23:12:55;99926.06;;;19.92;54.23
69796;BME280;57073;45.650;9.612;2023-09-30T23:17:56;99930.41;;;19.93;54.21
69796;BME280;57073;45.650;9.612;2023-09-30T23:22:56;99935.91;;;19.88;54.30
69796;BME280;57073;45.650;9.612;2023-09-30T23:27:59;99926.13;;;19.82;54.54
69796;BME280;57073;45.650;9.612;2023-09-30T23:33:01;99936.56;;;19.74;55.14
69796;BME280;57073;45.650;9.612;2023-09-30T23:38:06;99936.34;;;19.61;55.31
69796;BME280;57073;45.650;9.612;2023-09-30T23:43:07;99940.47;;;19.63;55.50
69796;BME280;57073;45.650;9.612;2023-09-30T23:48:08;99934.13;;;19.68;55.08
69796;BME280;57073;45.650;9.612;2023-09-30T23:53:09;99941.03;;;19.55;55.27
69796;BME280;57073;45.650;9.612;2023-09-30T23:58:10;99946.22;;;19.56;55.16
